sensor_id;sensor_type;location;lat;lon;timestamp;P1;durP1;ratioP1;P2;durP2;ratioP2
22230;SDS011;11284;48.086;-1.652;2023-08-17T00:01:51;5.50;;;2.08;;
22230;SDS011;11284;48.086;-1.652;2023-08-17T00:04:17;6.45;;;1.90;;
22230;SDS011;11284;48.086;-1.652;2023-08-17T00:06:43;5.38;;;1.85;;
22230;SDS011;11284;48.086;-1.652;2023-08-17T00:09:11;4.75;;;2.00;;
22230;SDS011;11284;48.086;-1.652;2023-08-17T00:11:37;6.30;;;1.90;;
22230;SDS011;11284;48.086;-1.652;2023-08-17T00:14:04;5.55;;;2.17;;
22230;SDS011;11284;48.086;-1.652;2023-08-17T00:16:30;5.47;;;1.98;;
22230;SDS011;11284;48.086;-1.652;2023-08-17T00:18:56;5.13;;;1.90;;
22230;SDS011;11284;48.086;-1.652;2023-08-17T00:21:22;6.82;;;2.00;;
22230;SDS011;11284;48.086;-1.652;2023-08-17T00:23:48;4.85;;;2.13;;
22230;SDS011;11284;48.086;-1.652;2023-08-17T00:26:14;7.38;;;2.25;;
22230;SDS011;11284;48.086;-1.652;2023-08-17T00:28:40;7.53;;;2.58;;
22230;SDS011;11284;48.086;-1.652;2023-08-17T00:31:07;6.10;;;2.08;;
22230;SDS011;11284;48.086;-1.652;2023-08-17T00:33:33;6.30;;;1.98;;
22230;SDS011;11284;48.086;-1.652;2023-08-17T00:35:58;6.45;;;2.03;;
22230;SDS011;11284;48.086;-1.652;2023-08-17T00:38:24;5.72;;;2.20;;
22230;SDS011;11284;48.086;-1.652;2023-08-17T00:40:50;6.28;;;2.13;;
22230;SDS011;11284;48.086;-1.652;2023-08-17T00:43:16;8.13;;;2.38;;
22230;SDS011;11284;48.086;-1.652;2023-08-17T00:45:43;5.53;;;1.95;;
22230;SDS011;11284;48.086;-1.652;2023-08-17T00:48:10;8.10;;;2.20;;
22230;SDS011;11284;48.086;-1.652;2023-08-17T00:50:36;5.65;;;2.13;;
22230;SDS011;11284;48.086;-1.652;2023-08-17T00:53:03;4.50;;;1.77;;
22230;SDS011;11284;48.086;-1.652;2023-08-17T00:55:29;4.65;;;2.10;;
22230;SDS011;11284;48.086;-1.652;2023-08-17T00:57:56;5.18;;;2.40;;
22230;SDS011;11284;48.086;-1.652;2023-08-17T01:00:23;6.10;;;2.00;;
22230;SDS011;11284;48.086;-1.652;2023-08-17T01:02:49;5.15;;;1.80;;
22230;SDS011;11284;48.086;-1.652;2023-08-17T01:05:16;5.85;;;2.25;;
22230;SDS011;11284;48.086;-1.652;2023-08-17T01:07:42;4.07;;;1.92;;
22230;SDS011;11284;48.086;-1.652;2023-08-17T01:10:08;6.40;;;2.10;;
22230;SDS011;11284;48.086;-1.652;2023-08-17T01:12:39;6.25;;;2.05;;
22230;SDS011;11284;48.086;-1.652;2023-08-17T01:17:43;6.60;;;2.00;;
22230;SDS011;11284;48.086;-1.652;2023-08-17T01:20:11;6.60;;;2.08;;
22230;SDS011;11284;48.086;-1.652;2023-08-17T01:22:40;5.63;;;1.95;;
22230;SDS011;11284;48.086;-1.652;2023-08-17T01:25:08;4.60;;;1.90;;
22230;SDS011;11284;48.086;-1.652;2023-08-17T01:27:37;6.63;;;2.35;;
22230;SDS011;11284;48.086;-1.652;2023-08-17T01:30:03;6.10;;;2.33;;
22230;SDS011;11284;48.086;-1.652;2023-08-17T01:33:11;5.63;;;2.47;;
22230;SDS011;11284;48.086;-1.652;2023-08-17T01:35:27;5.68;;;1.90;;
22230;SDS011;11284;48.086;-1.652;2023-08-17T01:37:55;5.57;;;2.15;;
22230;SDS011;11284;48.086;-1.652;2023-08-17T01:40:22;5.25;;;2.25;;
22230;SDS011;11284;48.086;-1.652;2023-08-17T01:42:49;5.78;;;2.20;;
22230;SDS011;11284;48.086;-1.652;2023-08-17T01:45:16;5.50;;;1.85;;
22230;SDS011;11284;48.086;-1.652;2023-08-17T01:47:42;5.03;;;2.10;;
22230;SDS011;11284;48.086;-1.652;2023-08-17T01:50:08;6.18;;;2.30;;
22230;SDS011;11284;48.086;-1.652;2023-08-17T01:52:34;4.18;;;2.00;;
22230;SDS011;11284;48.086;-1.652;2023-08-17T01:55:01;4.25;;;1.73;;
22230;SDS011;11284;48.086;-1.652;2023-08-17T01:57:27;5.20;;;1.95;;
22230;SDS011;11284;48.086;-1.652;2023-08-17T01:59:53;6.00;;;2.13;;
22230;SDS011;11284;48.086;-1.652;2023-08-17T02:02:19;4.57;;;1.67;;
22230;SDS011;11284;48.086;-1.652;2023-08-17T02:04:46;4.70;;;1.98;;
22230;SDS011;11284;48.086;-1.652;2023-08-17T02:07:12;5.10;;;1.85;;
22230;SDS011;11284;48.086;-1.652;2023-08-17T02:09:38;5.72;;;1.95;;
22230;SDS011;11284;48.086;-1.652;2023-08-17T02:12:04;5.85;;;2.00;;
22230;SDS011;11284;48.086;-1.652;2023-08-17T02:14:30;5.55;;;1.98;;
22230;SDS011;11284;48.086;-1.652;2023-08-17T02:16:56;5.93;;;1.55;;
22230;SDS011;11284;48.086;-1.652;2023-08-17T02:19:22;4.78;;;1.88;;
22230;SDS011;11284;48.086;-1.652;2023-08-17T02:21:48;4.13;;;1.67;;
22230;SDS011;11284;48.086;-1.652;2023-08-17T02:24:14;5.38;;;2.00;;
22230;SDS011;11284;48.086;-1.652;2023-08-17T02:26:40;4.35;;;1.98;;
22230;SDS011;11284;48.086;-1.652;2023-08-17T02:29:06;4.78;;;2.00;;
22230;SDS011;11284;48.086;-1.652;2023-08-17T02:31:32;5.93;;;1.83;;
22230;SDS011;11284;48.086;-1.652;2023-08-17T02:33:58;4.05;;;2.03;;
22230;SDS011;11284;48.086;-1.652;2023-08-17T02:36:29;4.88;;;1.80;;
22230;SDS011;11284;48.086;-1.652;2023-08-17T02:38:55;5.97;;;1.88;;
22230;SDS011;11284;48.086;-1.652;2023-08-17T02:41:21;5.43;;;1.80;;
22230;SDS011;11284;48.086;-1.652;2023-08-17T02:43:47;4.03;;;1.65;;
22230;SDS011;11284;48.086;-1.652;2023-08-17T02:46:13;4.70;;;1.92;;
22230;SDS011;11284;48.086;-1.652;2023-08-17T02:48:40;4.40;;;1.85;;
22230;SDS011;11284;48.086;-1.652;2023-08-17T02:51:06;4.35;;;2.05;;
22230;SDS011;11284;48.086;-1.652;2023-08-17T02:53:32;5.53;;;2.20;;
22230;SDS011;11284;48.086;-1.652;2023-08-17T02:55:58;4.72;;;1.77;;
22230;SDS011;11284;48.086;-1.652;2023-08-17T02:58:24;3.72;;;1.70;;
22230;SDS011;11284;48.086;-1.652;2023-08-17T03:00:52;3.88;;;1.65;;
22230;SDS011;11284;48.086;-1.652;2023-08-17T03:03:19;4.63;;;2.00;;
22230;SDS011;11284;48.086;-1.652;2023-08-17T03:05:45;5.88;;;1.67;;
22230;SDS011;11284;48.086;-1.652;2023-08-17T03:08:10;4.03;;;1.70;;
22230;SDS011;11284;48.086;-1.652;2023-08-17T03:10:37;4.15;;;1.98;;
22230;SDS011;11284;48.086;-1.652;2023-08-17T03:13:03;4.70;;;1.70;;
22230;SDS011;11284;48.086;-1.652;2023-08-17T03:15:29;3.97;;;1.77;;
22230;SDS011;11284;48.086;-1.652;2023-08-17T03:17:55;4.80;;;1.75;;
22230;SDS011;11284;48.086;-1.652;2023-08-17T03:20:21;6.82;;;2.00;;
22230;SDS011;11284;48.086;-1.652;2023-08-17T03:22:47;3.92;;;1.80;;
22230;SDS011;11284;48.086;-1.652;2023-08-17T03:25:13;6.93;;;2.47;;
22230;SDS011;11284;48.086;-1.652;2023-08-17T03:27:39;5.82;;;1.75;;
22230;SDS011;11284;48.086;-1.652;2023-08-17T03:30:05;3.88;;;1.67;;
22230;SDS011;11284;48.086;-1.652;2023-08-17T03:32:31;4.15;;;1.80;;
22230;SDS011;11284;48.086;-1.652;2023-08-17T03:34:57;4.90;;;2.20;;
22230;SDS011;11284;48.086;-1.652;2023-08-17T03:37:23;4.82;;;1.98;;
22230;SDS011;11284;48.086;-1.652;2023-08-17T03:39:49;4.45;;;1.85;;
22230;SDS011;11284;48.086;-1.652;2023-08-17T03:42:15;4.47;;;2.17;;
22230;SDS011;11284;48.086;-1.652;2023-08-17T03:44:41;4.47;;;2.00;;
22230;SDS011;11284;48.086;-1.652;2023-08-17T03:47:07;4.82;;;1.90;;
22230;SDS011;11284;48.086;-1.652;2023-08-17T03:49:33;4.93;;;1.67;;
22230;SDS011;11284;48.086;-1.652;2023-08-17T03:51:59;5.57;;;2.00;;
22230;SDS011;11284;48.086;-1.652;2023-08-17T03:54:25;6.10;;;1.90;;
22230;SDS011;11284;48.086;-1.652;2023-08-17T03:56:51;5.82;;;2.13;;
22230;SDS011;11284;48.086;-1.652;2023-08-17T03:59:17;4.55;;;1.95;;
22230;SDS011;11284;48.086;-1.652;2023-08-17T04:01:43;5.50;;;2.15;;
22230;SDS011;11284;48.086;-1.652;2023-08-17T04:04:09;5.05;;;2.13;;
22230;SDS011;11284;48.086;-1.652;2023-08-17T04:06:35;5.90;;;2.00;;
22230;SDS011;11284;48.086;-1.652;2023-08-17T04:09:04;5.72;;;2.08;;
22230;SDS011;11284;48.086;-1.652;2023-08-17T04:11:30;5.85;;;2.00;;
22230;SDS011;11284;48.086;-1.652;2023-08-17T04:13:56;5.43;;;1.90;;
22230;SDS011;11284;48.086;-1.652;2023-08-17T04:16:22;5.03;;;2.05;;
22230;SDS011;11284;48.086;-1.652;2023-08-17T04:18:48;6.60;;;2.00;;
22230;SDS011;11284;48.086;-1.652;2023-08-17T04:21:14;3.90;;;2.10;;
22230;SDS011;11284;48.086;-1.652;2023-08-17T04:23:40;5.45;;;1.80;;
22230;SDS011;11284;48.086;-1.652;2023-08-17T04:26:06;4.25;;;2.00;;
22230;SDS011;11284;48.086;-1.652;2023-08-17T04:28:32;5.38;;;2.28;;
22230;SDS011;11284;48.086;-1.652;2023-08-17T04:30:58;6.10;;;2.20;;
22230;SDS011;11284;48.086;-1.652;2023-08-17T04:33:24;4.25;;;1.70;;
22230;SDS011;11284;48.086;-1.652;2023-08-17T04:35:50;5.13;;;2.00;;
22230;SDS011;11284;48.086;-1.652;2023-08-17T04:38:16;4.60;;;1.90;;
22230;SDS011;11284;48.086;-1.652;2023-08-17T04:40:42;4.57;;;1.92;;
22230;SDS011;11284;48.086;-1.652;2023-08-17T04:43:09;5.50;;;1.85;;
22230;SDS011;11284;48.086;-1.652;2023-08-17T04:45:35;5.28;;;2.28;;
22230;SDS011;11284;48.086;-1.652;2023-08-17T04:48:01;5.15;;;1.88;;
22230;SDS011;11284;48.086;-1.652;2023-08-17T04:50:27;5.13;;;1.85;;
22230;SDS011;11284;48.086;-1.652;2023-08-17T04:52:53;5.57;;;2.03;;
22230;SDS011;11284;48.086;-1.652;2023-08-17T04:55:19;6.13;;;2.00;;
22230;SDS011;11284;48.086;-1.652;2023-08-17T04:57:45;4.93;;;2.00;;
22230;SDS011;11284;48.086;-1.652;2023-08-17T05:00:12;7.55;;;2.08;;
22230;SDS011;11284;48.086;-1.652;2023-08-17T05:02:39;4.90;;;1.90;;
22230;SDS011;11284;48.086;-1.652;2023-08-17T05:05:05;5.00;;;1.80;;
22230;SDS011;11284;48.086;-1.652;2023-08-17T05:07:32;4.97;;;1.80;;
22230;SDS011;11284;48.086;-1.652;2023-08-17T05:09:58;8.43;;;2.50;;
22230;SDS011;11284;48.086;-1.652;2023-08-17T05:12:24;6.40;;;1.88;;
22230;SDS011;11284;48.086;-1.652;2023-08-17T05:14:50;5.15;;;1.92;;
22230;SDS011;11284;48.086;-1.652;2023-08-17T05:17:16;6.95;;;2.10;;
22230;SDS011;11284;48.086;-1.652;2023-08-17T05:19:42;6.65;;;2.35;;
22230;SDS011;11284;48.086;-1.652;2023-08-17T05:22:10;6.88;;;2.20;;
22230;SDS011;11284;48.086;-1.652;2023-08-17T05:24:36;5.45;;;2.10;;
22230;SDS011;11284;48.086;-1.652;2023-08-17T05:27:02;9.52;;;2.00;;
22230;SDS011;11284;48.086;-1.652;2023-08-17T05:29:28;6.15;;;2.00;;
22230;SDS011;11284;48.086;-1.652;2023-08-17T05:31:54;6.20;;;1.85;;
22230;SDS011;11284;48.086;-1.652;2023-08-17T05:34:22;5.00;;;2.00;;
22230;SDS011;11284;48.086;-1.652;2023-08-17T05:36:48;4.50;;;2.10;;
22230;SDS011;11284;48.086;-1.652;2023-08-17T05:39:14;5.57;;;2.17;;
22230;SDS011;11284;48.086;-1.652;2023-08-17T05:41:40;6.32;;;2.20;;
22230;SDS011;11284;48.086;-1.652;2023-08-17T05:44:06;7.85;;;2.22;;
22230;SDS011;11284;48.086;-1.652;2023-08-17T05:46:33;7.28;;;2.20;;
22230;SDS011;11284;48.086;-1.652;2023-08-17T05:49:00;4.68;;;2.05;;
22230;SDS011;11284;48.086;-1.652;2023-08-17T05:51:26;4.53;;;2.10;;
22230;SDS011;11284;48.086;-1.652;2023-08-17T05:53:52;6.80;;;2.47;;
22230;SDS011;11284;48.086;-1.652;2023-08-17T05:56:18;5.22;;;2.13;;
22230;SDS011;11284;48.086;-1.652;2023-08-17T05:58:44;7.18;;;2.53;;
22230;SDS011;11284;48.086;-1.652;2023-08-17T06:01:10;4.85;;;2.38;;
22230;SDS011;11284;48.086;-1.652;2023-08-17T06:03:36;6.82;;;2.13;;
22230;SDS011;11284;48.086;-1.652;2023-08-17T06:06:03;6.45;;;2.17;;
22230;SDS011;11284;48.086;-1.652;2023-08-17T06:08:30;5.30;;;2.40;;
22230;SDS011;11284;48.086;-1.652;2023-08-17T06:10:56;5.60;;;2.38;;
22230;SDS011;11284;48.086;-1.652;2023-08-17T06:13:22;6.45;;;2.08;;
22230;SDS011;11284;48.086;-1.652;2023-08-17T06:15:48;6.20;;;2.47;;
22230;SDS011;11284;48.086;-1.652;2023-08-17T06:18:14;5.60;;;2.22;;
22230;SDS011;11284;48.086;-1.652;2023-08-17T06:20:41;4.82;;;2.50;;
22230;SDS011;11284;48.086;-1.652;2023-08-17T06:23:07;5.72;;;2.95;;
22230;SDS011;11284;48.086;-1.652;2023-08-17T06:25:33;5.50;;;2.80;;
22230;SDS011;11284;48.086;-1.652;2023-08-17T06:27:59;7.88;;;2.22;;
22230;SDS011;11284;48.086;-1.652;2023-08-17T06:30:25;5.15;;;2.55;;
22230;SDS011;11284;48.086;-1.652;2023-08-17T06:32:51;6.43;;;2.88;;
22230;SDS011;11284;48.086;-1.652;2023-08-17T06:35:17;5.82;;;2.58;;
22230;SDS011;11284;48.086;-1.652;2023-08-17T06:37:44;5.63;;;2.67;;
22230;SDS011;11284;48.086;-1.652;2023-08-17T06:40:10;6.25;;;2.90;;
22230;SDS011;11284;48.086;-1.652;2023-08-17T06:42:36;6.93;;;2.88;;
22230;SDS011;11284;48.086;-1.652;2023-08-17T06:45:02;5.82;;;2.60;;
22230;SDS011;11284;48.086;-1.652;2023-08-17T06:47:29;7.78;;;2.75;;
22230;SDS011;11284;48.086;-1.652;2023-08-17T06:49:55;5.07;;;2.63;;
22230;SDS011;11284;48.086;-1.652;2023-08-17T06:52:22;8.10;;;3.20;;
22230;SDS011;11284;48.086;-1.652;2023-08-17T06:54:49;4.85;;;2.80;;
22230;SDS011;11284;48.086;-1.652;2023-08-17T06:57:15;5.40;;;2.67;;
22230;SDS011;11284;48.086;-1.652;2023-08-17T06:59:41;7.38;;;3.20;;
22230;SDS011;11284;48.086;-1.652;2023-08-17T07:02:07;6.35;;;3.45;;
22230;SDS011;11284;48.086;-1.652;2023-08-17T07:04:33;8.10;;;4.25;;
22230;SDS011;11284;48.086;-1.652;2023-08-17T07:06:59;8.10;;;5.40;;
22230;SDS011;11284;48.086;-1.652;2023-08-17T07:09:25;12.15;;;7.00;;
22230;SDS011;11284;48.086;-1.652;2023-08-17T07:11:52;9.00;;;4.55;;
22230;SDS011;11284;48.086;-1.652;2023-08-17T07:14:18;9.10;;;5.72;;
22230;SDS011;11284;48.086;-1.652;2023-08-17T07:16:44;8.82;;;4.57;;
22230;SDS011;11284;48.086;-1.652;2023-08-17T07:19:10;8.88;;;3.45;;
22230;SDS011;11284;48.086;-1.652;2023-08-17T07:21:38;6.60;;;3.05;;
22230;SDS011;11284;48.086;-1.652;2023-08-17T07:24:14;8.05;;;4.43;;
22230;SDS011;11284;48.086;-1.652;2023-08-17T07:26:40;7.60;;;4.60;;
22230;SDS011;11284;48.086;-1.652;2023-08-17T07:29:06;6.05;;;3.47;;
22230;SDS011;11284;48.086;-1.652;2023-08-17T07:31:32;7.68;;;4.18;;
22230;SDS011;11284;48.086;-1.652;2023-08-17T07:33:59;9.60;;;4.95;;
22230;SDS011;11284;48.086;-1.652;2023-08-17T07:36:25;8.90;;;4.53;;
22230;SDS011;11284;48.086;-1.652;2023-08-17T07:38:51;7.55;;;4.32;;
22230;SDS011;11284;48.086;-1.652;2023-08-17T07:41:17;7.65;;;4.03;;
22230;SDS011;11284;48.086;-1.652;2023-08-17T07:43:43;7.30;;;4.35;;
22230;SDS011;11284;48.086;-1.652;2023-08-17T07:46:09;8.43;;;4.97;;
22230;SDS011;11284;48.086;-1.652;2023-08-17T07:48:35;8.82;;;4.45;;
22230;SDS011;11284;48.086;-1.652;2023-08-17T07:51:01;7.22;;;4.60;;
22230;SDS011;11284;48.086;-1.652;2023-08-17T07:53:27;6.97;;;4.20;;
22230;SDS011;11284;48.086;-1.652;2023-08-17T07:55:53;6.22;;;4.10;;
22230;SDS011;11284;48.086;-1.652;2023-08-17T07:58:19;7.47;;;4.30;;
22230;SDS011;11284;48.086;-1.652;2023-08-17T08:00:45;6.97;;;4.25;;
22230;SDS011;11284;48.086;-1.652;2023-08-17T08:03:11;8.55;;;4.20;;
22230;SDS011;11284;48.086;-1.652;2023-08-17T08:05:37;8.73;;;4.22;;
22230;SDS011;11284;48.086;-1.652;2023-08-17T08:08:03;9.00;;;4.40;;
22230;SDS011;11284;48.086;-1.652;2023-08-17T08:10:29;5.90;;;3.83;;
22230;SDS011;11284;48.086;-1.652;2023-08-17T08:12:55;9.88;;;4.25;;
22230;SDS011;11284;48.086;-1.652;2023-08-17T08:15:21;7.55;;;4.35;;
22230;SDS011;11284;48.086;-1.652;2023-08-17T08:17:47;8.30;;;4.60;;
22230;SDS011;11284;48.086;-1.652;2023-08-17T08:20:13;7.97;;;4.40;;
22230;SDS011;11284;48.086;-1.652;2023-08-17T08:22:39;7.10;;;4.50;;
22230;SDS011;11284;48.086;-1.652;2023-08-17T08:25:05;8.82;;;4.50;;
22230;SDS011;11284;48.086;-1.652;2023-08-17T08:27:31;9.10;;;4.18;;
22230;SDS011;11284;48.086;-1.652;2023-08-17T08:29:57;7.38;;;4.38;;
22230;SDS011;11284;48.086;-1.652;2023-08-17T08:32:23;7.65;;;3.80;;
22230;SDS011;11284;48.086;-1.652;2023-08-17T08:34:49;7.70;;;4.65;;
22230;SDS011;11284;48.086;-1.652;2023-08-17T08:37:15;7.32;;;4.53;;
22230;SDS011;11284;48.086;-1.652;2023-08-17T08:39:51;8.70;;;4.80;;
22230;SDS011;11284;48.086;-1.652;2023-08-17T08:42:18;8.55;;;4.75;;
22230;SDS011;11284;48.086;-1.652;2023-08-17T08:44:44;7.55;;;4.63;;
22230;SDS011;11284;48.086;-1.652;2023-08-17T08:47:11;7.10;;;4.72;;
22230;SDS011;11284;48.086;-1.652;2023-08-17T08:49:39;9.10;;;4.60;;
22230;SDS011;11284;48.086;-1.652;2023-08-17T08:52:07;7.22;;;4.50;;
22230;SDS011;11284;48.086;-1.652;2023-08-17T08:54:34;8.15;;;5.20;;
22230;SDS011;11284;48.086;-1.652;2023-08-17T08:57:01;8.45;;;4.60;;
22230;SDS011;11284;48.086;-1.652;2023-08-17T08:59:29;8.82;;;4.78;;
22230;SDS011;11284;48.086;-1.652;2023-08-17T09:01:56;9.73;;;5.10;;
22230;SDS011;11284;48.086;-1.652;2023-08-17T09:04:23;7.32;;;4.65;;
22230;SDS011;11284;48.086;-1.652;2023-08-17T09:06:49;9.20;;;4.70;;
22230;SDS011;11284;48.086;-1.652;2023-08-17T09:09:16;6.82;;;4.22;;
22230;SDS011;11284;48.086;-1.652;2023-08-17T09:11:42;8.45;;;4.50;;
22230;SDS011;11284;48.086;-1.652;2023-08-17T09:14:08;9.02;;;4.97;;
22230;SDS011;11284;48.086;-1.652;2023-08-17T09:16:34;8.02;;;4.68;;
22230;SDS011;11284;48.086;-1.652;2023-08-17T09:19:00;9.13;;;4.50;;
22230;SDS011;11284;48.086;-1.652;2023-08-17T09:21:30;9.80;;;5.00;;
22230;SDS011;11284;48.086;-1.652;2023-08-17T09:23:56;7.82;;;4.50;;
22230;SDS011;11284;48.086;-1.652;2023-08-17T09:26:23;9.30;;;4.60;;
22230;SDS011;11284;48.086;-1.652;2023-08-17T09:28:49;8.95;;;4.50;;
22230;SDS011;11284;48.086;-1.652;2023-08-17T09:31:15;11.60;;;5.07;;
22230;SDS011;11284;48.086;-1.652;2023-08-17T09:33:41;9.02;;;4.60;;
22230;SDS011;11284;48.086;-1.652;2023-08-17T09:36:09;8.38;;;4.75;;
22230;SDS011;11284;48.086;-1.652;2023-08-17T09:38:36;8.40;;;5.13;;
22230;SDS011;11284;48.086;-1.652;2023-08-17T09:41:03;9.93;;;5.22;;
22230;SDS011;11284;48.086;-1.652;2023-08-17T09:43:31;7.25;;;4.47;;
22230;SDS011;11284;48.086;-1.652;2023-08-17T09:45:59;8.40;;;5.40;;
22230;SDS011;11284;48.086;-1.652;2023-08-17T09:48:27;7.25;;;4.80;;
22230;SDS011;11284;48.086;-1.652;2023-08-17T09:50:53;10.48;;;4.93;;
22230;SDS011;11284;48.086;-1.652;2023-08-17T09:53:21;8.43;;;4.68;;
22230;SDS011;11284;48.086;-1.652;2023-08-17T09:55:47;7.38;;;4.32;;
22230;SDS011;11284;48.086;-1.652;2023-08-17T09:58:13;8.02;;;4.82;;
22230;SDS011;11284;48.086;-1.652;2023-08-17T10:00:46;11.50;;;4.95;;
22230;SDS011;11284;48.086;-1.652;2023-08-17T10:03:16;6.97;;;4.90;;
22230;SDS011;11284;48.086;-1.652;2023-08-17T10:05:42;7.88;;;4.82;;
22230;SDS011;11284;48.086;-1.652;2023-08-17T10:08:10;9.85;;;5.05;;
22230;SDS011;11284;48.086;-1.652;2023-08-17T10:10:37;9.70;;;5.05;;
22230;SDS011;11284;48.086;-1.652;2023-08-17T10:16:06;7.55;;;4.50;;
22230;SDS011;11284;48.086;-1.652;2023-08-17T10:18:40;7.85;;;4.53;;
22230;SDS011;11284;48.086;-1.652;2023-08-17T10:21:13;9.00;;;4.63;;
22230;SDS011;11284;48.086;-1.652;2023-08-17T10:23:39;7.78;;;4.38;;
22230;SDS011;11284;48.086;-1.652;2023-08-17T10:26:05;8.43;;;4.80;;
22230;SDS011;11284;48.086;-1.652;2023-08-17T10:28:33;7.65;;;4.45;;
22230;SDS011;11284;48.086;-1.652;2023-08-17T10:31:00;6.50;;;4.15;;
22230;SDS011;11284;48.086;-1.652;2023-08-17T10:33:26;8.10;;;4.15;;
22230;SDS011;11284;48.086;-1.652;2023-08-17T10:35:53;6.43;;;4.15;;
22230;SDS011;11284;48.086;-1.652;2023-08-17T10:38:19;7.88;;;4.07;;
22230;SDS011;11284;48.086;-1.652;2023-08-17T10:40:45;7.60;;;3.92;;
22230;SDS011;11284;48.086;-1.652;2023-08-17T10:43:32;6.55;;;3.72;;
22230;SDS011;11284;48.086;-1.652;2023-08-17T10:46:14;6.68;;;3.92;;
22230;SDS011;11284;48.086;-1.652;2023-08-17T10:48:43;5.70;;;4.00;;
22230;SDS011;11284;48.086;-1.652;2023-08-17T10:51:09;6.28;;;3.60;;
22230;SDS011;11284;48.086;-1.652;2023-08-17T10:53:38;6.45;;;3.65;;
22230;SDS011;11284;48.086;-1.652;2023-08-17T10:56:09;6.78;;;3.92;;
22230;SDS011;11284;48.086;-1.652;2023-08-17T10:58:36;7.13;;;3.65;;
22230;SDS011;11284;48.086;-1.652;2023-08-17T11:01:02;8.23;;;3.97;;
22230;SDS011;11284;48.086;-1.652;2023-08-17T11:03:28;6.93;;;4.07;;
22230;SDS011;11284;48.086;-1.652;2023-08-17T11:05:55;6.18;;;3.40;;
22230;SDS011;11284;48.086;-1.652;2023-08-17T11:10:58;5.87;;;3.60;;
22230;SDS011;11284;48.086;-1.652;2023-08-17T11:13:26;6.95;;;3.80;;
22230;SDS011;11284;48.086;-1.652;2023-08-17T11:15:53;6.18;;;3.60;;
22230;SDS011;11284;48.086;-1.652;2023-08-17T11:18:19;6.40;;;3.65;;
22230;SDS011;11284;48.086;-1.652;2023-08-17T11:20:45;6.78;;;3.78;;
22230;SDS011;11284;48.086;-1.652;2023-08-17T11:23:13;7.03;;;3.40;;
22230;SDS011;11284;48.086;-1.652;2023-08-17T11:25:39;6.25;;;3.35;;
22230;SDS011;11284;48.086;-1.652;2023-08-17T11:28:06;7.10;;;3.60;;
22230;SDS011;11284;48.086;-1.652;2023-08-17T11:30:33;7.20;;;3.70;;
22230;SDS011;11284;48.086;-1.652;2023-08-17T11:33:01;8.48;;;3.30;;
22230;SDS011;11284;48.086;-1.652;2023-08-17T11:35:27;7.13;;;3.50;;
22230;SDS011;11284;48.086;-1.652;2023-08-17T11:37:53;6.75;;;3.67;;
22230;SDS011;11284;48.086;-1.652;2023-08-17T11:40:19;7.78;;;3.70;;
22230;SDS011;11284;48.086;-1.652;2023-08-17T11:42:45;6.93;;;3.58;;
22230;SDS011;11284;48.086;-1.652;2023-08-17T11:45:12;6.50;;;3.83;;
22230;SDS011;11284;48.086;-1.652;2023-08-17T11:47:39;6.35;;;3.80;;
22230;SDS011;11284;48.086;-1.652;2023-08-17T11:50:05;6.63;;;3.60;;
22230;SDS011;11284;48.086;-1.652;2023-08-17T11:52:32;6.25;;;3.28;;
22230;SDS011;11284;48.086;-1.652;2023-08-17T11:54:58;7.45;;;3.13;;
22230;SDS011;11284;48.086;-1.652;2023-08-17T11:57:25;5.65;;;3.00;;
22230;SDS011;11284;48.086;-1.652;2023-08-17T11:59:57;5.53;;;3.20;;
22230;SDS011;11284;48.086;-1.652;2023-08-17T12:02:23;5.65;;;3.10;;
22230;SDS011;11284;48.086;-1.652;2023-08-17T12:04:50;5.32;;;3.20;;
22230;SDS011;11284;48.086;-1.652;2023-08-17T12:07:17;5.78;;;2.92;;
22230;SDS011;11284;48.086;-1.652;2023-08-17T12:09:43;7.03;;;3.15;;
22230;SDS011;11284;48.086;-1.652;2023-08-17T12:12:10;5.95;;;3.35;;
22230;SDS011;11284;48.086;-1.652;2023-08-17T12:14:36;5.28;;;2.90;;
22230;SDS011;11284;48.086;-1.652;2023-08-17T12:17:02;5.85;;;3.22;;
22230;SDS011;11284;48.086;-1.652;2023-08-17T12:19:29;6.28;;;3.00;;
22230;SDS011;11284;48.086;-1.652;2023-08-17T12:21:56;7.70;;;3.05;;
22230;SDS011;11284;48.086;-1.652;2023-08-17T12:24:26;6.75;;;3.35;;
22230;SDS011;11284;48.086;-1.652;2023-08-17T12:26:52;5.10;;;2.70;;
22230;SDS011;11284;48.086;-1.652;2023-08-17T12:29:22;5.70;;;3.00;;
22230;SDS011;11284;48.086;-1.652;2023-08-17T12:31:48;6.05;;;2.90;;
22230;SDS011;11284;48.086;-1.652;2023-08-17T12:34:14;6.43;;;3.00;;
22230;SDS011;11284;48.086;-1.652;2023-08-17T12:36:42;6.32;;;2.92;;
22230;SDS011;11284;48.086;-1.652;2023-08-17T12:39:08;5.38;;;2.85;;
22230;SDS011;11284;48.086;-1.652;2023-08-17T12:41:34;5.10;;;2.70;;
22230;SDS011;11284;48.086;-1.652;2023-08-17T12:44:00;5.03;;;2.92;;
22230;SDS011;11284;48.086;-1.652;2023-08-17T12:46:26;5.88;;;2.60;;
22230;SDS011;11284;48.086;-1.652;2023-08-17T12:48:53;8.07;;;2.72;;
22230;SDS011;11284;48.086;-1.652;2023-08-17T12:51:19;5.90;;;3.00;;
22230;SDS011;11284;48.086;-1.652;2023-08-17T12:53:45;5.85;;;2.75;;
22230;SDS011;11284;48.086;-1.652;2023-08-17T12:56:11;6.57;;;2.65;;
22230;SDS011;11284;48.086;-1.652;2023-08-17T12:58:37;5.68;;;3.03;;
22230;SDS011;11284;48.086;-1.652;2023-08-17T13:01:03;5.50;;;2.90;;
22230;SDS011;11284;48.086;-1.652;2023-08-17T13:03:29;5.07;;;2.65;;
22230;SDS011;11284;48.086;-1.652;2023-08-17T13:05:55;10.48;;;3.03;;
22230;SDS011;11284;48.086;-1.652;2023-08-17T13:08:21;5.00;;;2.58;;
22230;SDS011;11284;48.086;-1.652;2023-08-17T13:10:47;4.32;;;2.50;;
22230;SDS011;11284;48.086;-1.652;2023-08-17T13:13:13;5.45;;;2.70;;
22230;SDS011;11284;48.086;-1.652;2023-08-17T13:15:39;6.43;;;3.13;;
22230;SDS011;11284;48.086;-1.652;2023-08-17T13:18:07;4.72;;;2.75;;
22230;SDS011;11284;48.086;-1.652;2023-08-17T13:20:33;6.55;;;3.08;;
22230;SDS011;11284;48.086;-1.652;2023-08-17T13:22:59;5.88;;;2.47;;
22230;SDS011;11284;48.086;-1.652;2023-08-17T13:25:25;5.15;;;2.80;;
22230;SDS011;11284;48.086;-1.652;2023-08-17T13:27:51;4.63;;;2.67;;
22230;SDS011;11284;48.086;-1.652;2023-08-17T13:30:17;7.15;;;3.92;;
22230;SDS011;11284;48.086;-1.652;2023-08-17T13:32:43;7.15;;;3.03;;
22230;SDS011;11284;48.086;-1.652;2023-08-17T13:35:09;5.13;;;3.00;;
22230;SDS011;11284;48.086;-1.652;2023-08-17T13:37:38;5.47;;;2.80;;
22230;SDS011;11284;48.086;-1.652;2023-08-17T13:40:04;9.02;;;3.30;;
22230;SDS011;11284;48.086;-1.652;2023-08-17T13:42:31;5.93;;;2.80;;
22230;SDS011;11284;48.086;-1.652;2023-08-17T13:44:57;7.18;;;2.95;;
22230;SDS011;11284;48.086;-1.652;2023-08-17T13:47:23;6.10;;;2.60;;
22230;SDS011;11284;48.086;-1.652;2023-08-17T13:49:49;5.60;;;3.10;;
22230;SDS011;11284;48.086;-1.652;2023-08-17T13:52:15;5.75;;;2.92;;
22230;SDS011;11284;48.086;-1.652;2023-08-17T13:54:41;6.43;;;3.10;;
22230;SDS011;11284;48.086;-1.652;2023-08-17T13:57:07;6.88;;;2.83;;
22230;SDS011;11284;48.086;-1.652;2023-08-17T13:59:33;5.70;;;2.72;;
22230;SDS011;11284;48.086;-1.652;2023-08-17T14:01:59;7.18;;;2.97;;
22230;SDS011;11284;48.086;-1.652;2023-08-17T14:04:25;6.10;;;3.00;;
22230;SDS011;11284;48.086;-1.652;2023-08-17T14:06:51;4.63;;;2.70;;
22230;SDS011;11284;48.086;-1.652;2023-08-17T14:09:17;4.75;;;2.60;;
22230;SDS011;11284;48.086;-1.652;2023-08-17T14:11:43;5.70;;;2.95;;
22230;SDS011;11284;48.086;-1.652;2023-08-17T14:14:10;6.90;;;3.00;;
22230;SDS011;11284;48.086;-1.652;2023-08-17T14:16:36;6.38;;;2.70;;
22230;SDS011;11284;48.086;-1.652;2023-08-17T14:19:02;6.80;;;3.25;;
22230;SDS011;11284;48.086;-1.652;2023-08-17T14:21:28;7.72;;;4.88;;
22230;SDS011;11284;48.086;-1.652;2023-08-17T14:23:54;5.97;;;3.00;;
22230;SDS011;11284;48.086;-1.652;2023-08-17T14:26:20;5.38;;;2.88;;
22230;SDS011;11284;48.086;-1.652;2023-08-17T14:28:46;6.75;;;2.90;;
22230;SDS011;11284;48.086;-1.652;2023-08-17T14:31:12;7.28;;;3.33;;
22230;SDS011;11284;48.086;-1.652;2023-08-17T14:33:42;6.95;;;2.95;;
22230;SDS011;11284;48.086;-1.652;2023-08-17T14:36:08;4.90;;;2.67;;
22230;SDS011;11284;48.086;-1.652;2023-08-17T14:38:34;5.35;;;2.72;;